createdAt,value
2023-05-17T00:01:11.544Z,11.30
2023-05-17T00:04:21.906Z,8.90
2023-05-17T00:07:30.854Z,13.30
2023-05-17T00:10:39.751Z,6.40
2023-05-17T00:13:49.210Z,11.30
2023-05-17T00:16:57.920Z,10.40
2023-05-17T00:20:06.013Z,15.30
2023-05-17T00:23:16.565Z,11.10
2023-05-17T00:26:25.109Z,8.90
2023-05-17T00:29:34.500Z,9.80
2023-05-17T00:32:44.115Z,10.70
2023-05-17T00:35:45.634Z,11.90
2023-05-17T00:38:54.013Z,13.40
2023-05-17T00:42:04.479Z,11.10
2023-05-17T00:45:13.279Z,11.70
2023-05-17T00:48:21.851Z,10.10
2023-05-17T00:51:30.301Z,8.80
2023-05-17T00:54:40.390Z,10.10
2023-05-17T00:57:50.040Z,6.80
2023-05-17T01:00:57.972Z,11.20
2023-05-17T01:04:09.230Z,11.30
2023-05-17T01:07:08.410Z,10.30
2023-05-17T01:10:16.713Z,9.60
2023-05-17T01:13:26.719Z,11.00
2023-05-17T01:16:35.746Z,6.10
2023-05-17T01:19:44.328Z,7.70
2023-05-17T01:22:54.681Z,8.50
2023-05-17T01:26:03.645Z,12.30
2023-05-17T01:29:12.654Z,8.40
2023-05-17T01:32:21.181Z,10.70
2023-05-17T01:35:31.087Z,12.10
2023-05-17T01:38:39.685Z,11.00
2023-05-17T01:41:47.995Z,11.70
2023-05-17T01:44:58.133Z,12.20
2023-05-17T01:48:07.591Z,11.30
2023-05-17T01:51:16.321Z,16.20
2023-05-17T01:54:26.051Z,12.10
2023-05-17T01:57:35.178Z,10.70
2023-05-17T02:00:43.279Z,10.10
2023-05-17T02:03:53.581Z,8.50
2023-05-17T02:07:02.063Z,11.40
2023-05-17T02:10:11.194Z,17.70
2023-05-17T02:13:19.646Z,10.20
2023-05-17T02:16:30.251Z,11.10
2023-05-17T02:19:39.005Z,12.00
2023-05-17T02:22:47.800Z,17.10
2023-05-17T02:25:57.723Z,13.80
2023-05-17T02:29:06.257Z,14.10
2023-05-17T02:32:15.164Z,16.00
2023-05-17T02:35:25.480Z,12.10
2023-05-17T02:38:34.256Z,14.40
2023-05-17T02:41:42.172Z,9.70
2023-05-17T02:44:52.570Z,16.40
2023-05-17T02:48:01.194Z,15.30
2023-05-17T02:51:10.054Z,13.00
2023-05-17T02:54:19.852Z,17.60
2023-05-17T02:57:28.573Z,15.80
2023-05-17T03:00:32.725Z,19.00
2023-05-17T03:03:40.958Z,11.30
2023-05-17T03:06:50.278Z,14.40
2023-05-17T03:09:58.083Z,15.80
2023-05-17T03:13:06.487Z,12.90
2023-05-17T03:16:15.489Z,16.00
2023-05-17T03:19:23.019Z,17.60
2023-05-17T03:22:34.463Z,22.40
2023-05-17T03:25:33.072Z,13.70
2023-05-17T03:28:40.372Z,15.70
2023-05-17T03:31:48.344Z,19.90
2023-05-17T03:34:57.738Z,14.00
2023-05-17T03:38:06.163Z,14.80
2023-05-17T03:41:13.955Z,14.80
2023-05-17T03:44:21.230Z,20.00
2023-05-17T03:47:30.577Z,15.20
2023-05-17T03:50:38.484Z,18.90
2023-05-17T03:53:46.667Z,15.20
2023-05-17T03:56:30.133Z,18.00
2023-05-17T03:59:38.406Z,16.70
2023-05-17T04:02:46.233Z,20.50
2023-05-17T04:05:55.876Z,17.00
2023-05-17T04:09:03.302Z,17.00
2023-05-17T04:12:11.340Z,17.00
2023-05-17T04:15:21.760Z,16.10
2023-05-17T04:18:29.723Z,15.40
2023-05-17T04:21:37.898Z,17.40
2023-05-17T04:24:45.204Z,18.90
2023-05-17T04:27:55.117Z,17.30
2023-05-17T04:31:02.375Z,14.20
2023-05-17T04:34:10.639Z,18.70
2023-05-17T04:37:19.808Z,17.10
2023-05-17T04:40:28.210Z,18.10
2023-05-17T04:43:36.364Z,19.30
2023-05-17T04:46:45.485Z,17.10
2023-05-17T04:49:53.653Z,17.20
2023-05-17T04:53:01.197Z,17.80
2023-05-17T04:56:10.676Z,17.00
2023-05-17T04:59:18.693Z,20.30
2023-05-17T05:02:26.456Z,17.30
2023-05-17T05:05:37.510Z,16.50
2023-05-17T05:08:46.579Z,19.90
2023-05-17T05:11:55.310Z,16.00
2023-05-17T05:15:02.854Z,22.70
2023-05-17T05:18:13.093Z,17.60
2023-05-17T05:21:20.586Z,12.10
2023-05-17T05:24:28.048Z,18.80
2023-05-17T05:27:37.073Z,17.70
2023-05-17T05:30:44.323Z,15.00
2023-05-17T05:33:52.630Z,17.20
2023-05-17T05:37:01.619Z,14.30
2023-05-17T05:40:09.123Z,16.60
2023-05-17T05:43:16.907Z,14.30
2023-05-17T05:46:25.469Z,13.90
2023-05-17T05:49:33.458Z,14.50
2023-05-17T05:52:41.478Z,13.60
2023-05-17T05:55:49.699Z,18.30
2023-05-17T05:58:59.145Z,15.50
2023-05-17T06:02:06.680Z,18.70
2023-05-17T06:05:14.235Z,13.50
2023-05-17T06:08:23.278Z,14.10
2023-05-17T06:11:30.869Z,14.60
2023-05-17T06:14:38.608Z,15.60
2023-05-17T06:17:47.618Z,14.20
2023-05-17T06:20:55.660Z,14.40
2023-05-17T06:24:05.027Z,13.30
2023-05-17T06:27:03.604Z,11.40
2023-05-17T06:30:11.342Z,13.60
2023-05-17T06:33:18.898Z,12.80
2023-05-17T06:36:26.883Z,12.30
2023-05-17T06:39:36.632Z,12.30
2023-05-17T06:42:44.160Z,13.90
2023-05-17T06:45:52.200Z,10.40
2023-05-17T06:49:00.873Z,8.10
2023-05-17T06:52:08.595Z,10.80
2023-05-17T06:55:16.473Z,9.10
2023-05-17T06:58:26.005Z,11.70
2023-05-17T07:01:33.976Z,11.90
2023-05-17T07:04:42.810Z,9.80
2023-05-17T07:07:52.119Z,9.50
2023-05-17T07:10:59.970Z,8.20
2023-05-17T07:14:07.386Z,9.50
2023-05-17T07:17:15.421Z,9.20
2023-05-17T07:20:24.005Z,10.80
2023-05-17T07:23:32.101Z,7.50
2023-05-17T07:26:39.898Z,8.20
2023-05-17T07:29:48.866Z,5.50
2023-05-17T07:32:56.021Z,7.80
2023-05-17T07:36:04.485Z,6.90
2023-05-17T07:39:13.646Z,9.40
2023-05-17T07:42:21.258Z,8.70
2023-05-17T07:45:30.119Z,10.30
2023-05-17T07:48:39.358Z,8.60
2023-05-17T07:51:46.790Z,9.60
2023-05-17T07:54:54.720Z,11.40
2023-05-17T07:58:02.396Z,8.80
2023-05-17T08:01:11.700Z,9.40
2023-05-17T08:04:19.681Z,10.40
2023-05-17T08:07:27.141Z,9.70
2023-05-17T08:10:36.801Z,7.90
2023-05-17T08:13:45.103Z,8.80
2023-05-17T08:16:53.048Z,9.30
2023-05-17T08:20:02.669Z,8.60
2023-05-17T08:23:10.581Z,11.20
2023-05-17T08:26:18.206Z,9.10
2023-05-17T08:29:28.220Z,10.60
2023-05-17T08:32:36.414Z,8.40
2023-05-17T08:35:44.525Z,7.40
2023-05-17T08:38:53.784Z,7.10
2023-05-17T08:42:02.121Z,9.90
2023-05-17T08:45:09.505Z,8.50
2023-05-17T08:48:17.048Z,10.80
2023-05-17T08:51:26.447Z,7.90
2023-05-17T08:54:34.264Z,8.60
2023-05-17T08:57:42.071Z,7.40
2023-05-17T09:00:51.273Z,9.50
2023-05-17T09:03:58.807Z,7.20
2023-05-17T09:07:07.080Z,5.40
2023-05-17T09:10:15.988Z,10.00
2023-05-17T09:13:23.942Z,9.30
2023-05-17T09:16:31.438Z,9.20
2023-05-17T09:19:41.081Z,7.30
2023-05-17T09:22:48.974Z,8.70
2023-05-17T09:25:56.741Z,7.90
2023-05-17T09:29:04.146Z,8.30
2023-05-17T09:32:12.981Z,10.60
2023-05-17T09:35:21.275Z,7.40
2023-05-17T09:38:28.855Z,10.60
2023-05-17T09:41:37.850Z,9.50
2023-05-17T09:44:46.181Z,13.20
2023-05-17T09:47:53.305Z,7.60
2023-05-17T09:51:02.954Z,8.80
2023-05-17T09:54:10.686Z,7.90
2023-05-17T09:57:18.283Z,9.30
2023-05-17T10:00:27.484Z,9.40
2023-05-17T10:03:35.131Z,6.90
2023-05-17T10:06:48.054Z,9.70
2023-05-17T10:09:46.491Z,9.10
2023-05-17T10:12:55.465Z,7.10
2023-05-17T10:16:03.299Z,8.30
2023-05-17T10:19:11.716Z,5.20
2023-05-17T10:22:23.573Z,8.30
2023-05-17T10:25:31.513Z,8.90
2023-05-17T10:28:39.008Z,9.40
2023-05-17T10:31:47.810Z,6.40
2023-05-17T10:35:09.505Z,5.80
2023-05-17T10:38:00.906Z,6.80
2023-05-17T10:41:10.706Z,8.20
2023-05-17T10:44:17.777Z,9.30
2023-05-17T10:47:25.829Z,7.50
2023-05-17T10:50:34.803Z,9.00
2023-05-17T10:53:42.363Z,10.90
2023-05-17T10:56:50.535Z,9.40
2023-05-17T10:59:57.494Z,9.40
2023-05-17T11:03:06.794Z,9.30
2023-05-17T11:06:23.527Z,11.90
2023-05-17T11:09:18.862Z,5.80
2023-05-17T11:12:27.405Z,9.10
2023-05-17T11:15:35.628Z,7.10
2023-05-17T11:18:43.093Z,8.80
2023-05-17T11:21:52.088Z,7.10
2023-05-17T11:24:59.606Z,9.00
2023-05-17T11:28:07.434Z,6.90
2023-05-17T11:31:16.696Z,6.00
2023-05-17T11:34:24.926Z,7.70
2023-05-17T11:37:31.958Z,6.20
2023-05-17T11:40:40.011Z,5.40
2023-05-17T11:43:49.035Z,6.00
2023-05-17T11:46:56.742Z,8.70
2023-05-17T11:50:04.507Z,7.90
2023-05-17T11:53:13.445Z,6.80
2023-05-17T11:56:26.508Z,5.00
2023-05-17T11:59:25.620Z,5.50
2023-05-17T12:04:56.406Z,5.40
2023-05-17T12:08:04.440Z,6.90
2023-05-17T12:11:12.110Z,7.70
2023-05-17T12:14:20.688Z,5.50
2023-05-17T12:17:28.105Z,7.20
2023-05-17T12:20:35.782Z,8.90
2023-05-17T12:23:45.036Z,6.20
2023-05-17T12:26:52.450Z,8.20
2023-05-17T12:29:59.966Z,7.20
2023-05-17T12:33:09.663Z,6.10
2023-05-17T12:36:17.209Z,7.80
2023-05-17T12:39:25.145Z,7.10
2023-05-17T12:42:33.732Z,6.00
2023-05-17T12:45:41.070Z,8.10
2023-05-17T12:48:50.028Z,9.20
2023-05-17T12:51:59.140Z,8.40
2023-05-17T12:55:05.971Z,9.60
2023-05-17T12:58:13.766Z,7.70
2023-05-17T13:01:23.112Z,7.50
2023-05-17T13:04:32.460Z,7.90
2023-05-17T13:07:40.542Z,7.90
2023-05-17T13:10:47.449Z,6.20
2023-05-17T13:13:57.591Z,7.80
2023-05-17T13:17:04.935Z,6.90
2023-05-17T13:20:12.755Z,4.60
2023-05-17T13:23:21.499Z,9.30
2023-05-17T13:26:29.439Z,7.40
2023-05-17T13:29:40.247Z,5.90
2023-05-17T13:32:39.046Z,6.90
2023-05-17T13:35:46.426Z,5.50
2023-05-17T13:38:54.787Z,4.00
2023-05-17T13:42:02.564Z,5.10
2023-05-17T13:45:12.994Z,4.50
2023-05-17T13:48:20.543Z,4.20
2023-05-17T13:51:28.067Z,5.40
2023-05-17T13:54:37.665Z,4.70
2023-05-17T13:57:45.527Z,7.20
2023-05-17T14:00:53.275Z,3.20
2023-05-17T14:04:02.095Z,4.00
2023-05-17T14:07:09.441Z,4.70
2023-05-17T14:10:17.339Z,4.20
2023-05-17T14:13:25.838Z,4.30
2023-05-17T14:16:34.164Z,5.30
2023-05-17T14:19:41.282Z,5.30
2023-05-17T14:22:48.936Z,4.70
2023-05-17T14:25:57.948Z,3.80
2023-05-17T14:29:05.706Z,4.70
2023-05-17T14:32:13.819Z,4.60
2023-05-17T14:35:22.962Z,4.40
2023-05-17T14:38:31.342Z,6.80
2023-05-17T14:41:39.537Z,6.30
2023-05-17T14:44:51.146Z,4.90
2023-05-17T14:47:59.350Z,6.10
2023-05-17T14:51:08.034Z,4.50
2023-05-17T14:54:18.328Z,6.10
2023-05-17T14:57:26.549Z,4.00
2023-05-17T15:00:34.900Z,5.20
2023-05-17T15:03:44.633Z,6.70
2023-05-17T15:06:54.022Z,4.50
2023-05-17T15:10:02.461Z,4.00
2023-05-17T15:13:11.326Z,4.10
2023-05-17T15:16:10.705Z,3.60
2023-05-17T15:19:19.316Z,5.40
2023-05-17T15:22:27.083Z,7.00
2023-05-17T15:25:28.058Z,5.30
2023-05-17T15:28:36.348Z,5.60
2023-05-17T15:31:44.604Z,3.00
2023-05-17T15:34:54.755Z,5.00
2023-05-17T15:38:03.367Z,5.50
2023-05-17T15:41:12.155Z,4.10
2023-05-17T15:44:23.157Z,7.40
2023-05-17T15:47:42.630Z,4.10
2023-05-17T15:50:37.178Z,9.80
2023-05-17T15:53:37.303Z,3.20
2023-05-17T15:56:47.544Z,4.90
2023-05-17T15:59:56.279Z,3.40
2023-05-17T16:03:05.049Z,6.70
2023-05-17T16:06:15.420Z,4.80
2023-05-17T16:09:23.403Z,6.40
2023-05-17T16:12:33.285Z,6.80
2023-05-17T16:15:43.334Z,6.40
2023-05-17T16:18:52.025Z,6.20
2023-05-17T16:22:00.461Z,5.60
2023-05-17T16:25:10.787Z,6.20
2023-05-17T16:28:19.114Z,4.30
2023-05-17T16:31:27.628Z,4.50
2023-05-17T16:34:35.916Z,6.80
2023-05-17T16:37:46.608Z,5.90
2023-05-17T16:40:54.900Z,5.10
2023-05-17T16:44:03.373Z,3.70
2023-05-17T16:47:13.361Z,4.90
2023-05-17T16:50:22.074Z,5.60
2023-05-17T16:53:30.382Z,6.50
2023-05-17T16:56:40.661Z,4.90
2023-05-17T16:59:48.819Z,4.50
2023-05-17T17:03:35.389Z,8.70
2023-05-17T17:06:45.668Z,6.80
2023-05-17T17:09:55.056Z,3.90
2023-05-17T17:13:04.382Z,6.20
2023-05-17T17:16:14.622Z,7.20
2023-05-17T17:19:23.285Z,4.80
2023-05-17T17:22:32.281Z,5.00
2023-05-17T17:25:40.871Z,5.60
2023-05-17T17:28:51.000Z,6.50
2023-05-17T17:31:59.891Z,4.50
2023-05-17T17:35:08.723Z,5.50
2023-05-17T17:38:18.930Z,8.80
2023-05-17T17:41:27.204Z,9.30
2023-05-17T17:44:36.035Z,7.80
2023-05-17T17:47:45.696Z,4.80
2023-05-17T17:50:54.794Z,4.00
2023-05-17T17:54:03.117Z,5.40
2023-05-17T17:57:13.842Z,3.60
2023-05-17T18:00:22.300Z,8.70
2023-05-17T18:03:30.631Z,6.40
2023-05-17T18:06:40.564Z,5.90
2023-05-17T18:09:48.865Z,7.90
2023-05-17T18:12:56.647Z,6.50
2023-05-17T18:16:05.440Z,7.10
2023-05-17T18:19:16.093Z,8.30
2023-05-17T18:22:24.982Z,5.30
2023-05-17T18:25:34.488Z,6.20
2023-05-17T18:28:43.845Z,7.90
2023-05-17T18:31:52.219Z,6.70
2023-05-17T18:35:00.869Z,4.20
2023-05-17T18:38:10.190Z,6.10
2023-05-17T18:41:19.555Z,6.80
2023-05-17T18:44:28.242Z,8.20
2023-05-17T18:47:38.368Z,6.50
2023-05-17T18:50:48.233Z,7.10
2023-05-17T18:53:57.056Z,8.80
2023-05-17T18:57:05.651Z,6.40
2023-05-17T19:00:16.074Z,8.00
2023-05-17T19:03:24.380Z,6.30
2023-05-17T19:06:32.822Z,6.70
2023-05-17T19:09:42.586Z,9.50
2023-05-17T19:12:50.951Z,4.80
2023-05-17T19:15:59.555Z,9.10
2023-05-17T19:18:59.106Z,9.60
2023-05-17T19:22:07.870Z,7.20
2023-05-17T19:25:17.163Z,7.20
2023-05-17T19:28:18.390Z,7.10
2023-05-17T19:31:26.965Z,9.80
2023-05-17T19:34:35.575Z,9.50
2023-05-17T19:37:45.021Z,7.10
2023-05-17T19:40:54.794Z,11.70
2023-05-17T19:44:02.948Z,6.40
2023-05-17T19:47:11.278Z,7.20
2023-05-17T19:50:21.138Z,6.50
2023-05-17T19:53:40.302Z,7.90
2023-05-17T19:56:34.914Z,7.50
2023-05-17T19:59:45.152Z,4.60
2023-05-17T20:02:54.434Z,6.00
2023-05-17T20:06:02.763Z,11.20
2023-05-17T20:09:12.807Z,8.00
2023-05-17T20:12:21.971Z,7.40
2023-05-17T20:15:30.842Z,8.90
2023-05-17T20:18:42.435Z,5.60
2023-05-17T20:21:51.648Z,7.40
2023-05-17T20:25:00.044Z,6.60
2023-05-17T20:28:08.241Z,6.90
2023-05-17T20:31:18.161Z,11.60
2023-05-17T20:34:27.723Z,8.70
2023-05-17T20:37:36.126Z,7.80
2023-05-17T20:40:46.389Z,8.30
2023-05-17T20:43:55.352Z,6.10
2023-05-17T20:47:03.738Z,7.00
2023-05-17T20:50:14.277Z,10.50
2023-05-17T20:53:23.512Z,7.80
2023-05-17T20:56:31.993Z,6.00
2023-05-17T20:59:42.055Z,10.20
2023-05-17T21:02:51.015Z,12.90
2023-05-17T21:05:59.495Z,9.30
2023-05-17T21:09:07.693Z,7.50
2023-05-17T21:12:17.584Z,9.90
2023-05-17T21:15:26.436Z,9.30
2023-05-17T21:18:34.963Z,8.30
2023-05-17T21:21:44.820Z,8.60
2023-05-17T21:24:54.201Z,6.80
2023-05-17T21:28:02.945Z,9.40
2023-05-17T21:31:14.112Z,10.40
2023-05-17T21:34:22.514Z,8.10
2023-05-17T21:37:31.104Z,8.00
2023-05-17T21:40:32.657Z,6.90
2023-05-17T21:43:41.375Z,11.40
2023-05-17T21:46:50.471Z,8.40
2023-05-17T21:49:58.880Z,8.20
2023-05-17T21:53:09.324Z,9.90
2023-05-17T21:56:17.731Z,10.00
2023-05-17T21:59:26.295Z,10.10
2023-05-17T22:02:36.848Z,8.90
2023-05-17T22:05:44.953Z,10.50
2023-05-17T22:08:53.766Z,8.80
2023-05-17T22:12:04.305Z,10.90
2023-05-17T22:15:12.957Z,8.00
2023-05-17T22:18:22.376Z,8.70
2023-05-17T22:21:32.335Z,11.00
2023-05-17T22:24:41.012Z,10.40
2023-05-17T22:27:50.105Z,7.60
2023-05-17T22:31:00.460Z,7.30
2023-05-17T22:34:08.982Z,13.60
2023-05-17T22:37:18.097Z,11.30
2023-05-17T22:40:26.940Z,9.40
2023-05-17T22:43:37.306Z,9.20
2023-05-17T22:46:46.837Z,8.10
2023-05-17T22:49:55.318Z,9.10
2023-05-17T22:53:05.551Z,8.30
2023-05-17T22:56:14.768Z,11.00
2023-05-17T22:59:23.987Z,9.70
2023-05-17T23:02:33.875Z,6.10
2023-05-17T23:05:43.180Z,8.00
2023-05-17T23:08:53.046Z,11.20
2023-05-17T23:12:02.858Z,7.10
2023-05-17T23:15:10.817Z,6.60
2023-05-17T23:18:19.688Z,11.10
2023-05-17T23:21:28.106Z,9.30
2023-05-17T23:24:38.493Z,10.20
2023-05-17T23:27:47.364Z,10.40
2023-05-17T23:30:55.772Z,12.40
2023-05-17T23:33:55.782Z,10.30
2023-05-17T23:37:04.030Z,10.00
2023-05-17T23:40:13.302Z,10.80
2023-05-17T23:43:23.239Z,10.30
2023-05-17T23:46:31.331Z,9.90
2023-05-17T23:49:40.346Z,10.00
2023-05-17T23:52:50.407Z,6.50
2023-05-17T23:55:59.278Z,8.40
2023-05-17T23:59:08.183Z,10.00
